Time;durP1;ratioP1;P1;durP2;ratioP2;P2;SDS_P1;SDS_P2;PMS_P1;PMS_P2;Temp;Humidity;BMP_temperature;BMP_pressure;BME280_temperature;BME280_humidity;BME280_pressure;Samples;Min_cycle;Max_cycle;Signal;HPM_P1;HPM_P2
2022/07/10 00:02:03;;;;;;;7.67;1.50;;;;;;;12.04;100.00;101589.72;5024331;28;20048;-74
2022/07/10 00:04:29;;;;;;;9.82;2.25;;;;;;;11.97;100.00;101585.97;5032236;28;20041;-74
2022/07/10 00:06:55;;;;;;;6.07;1.87;;;;;;;12.06;100.00;101580.69;5025770;28;20051;-74
2022/07/10 00:09:22;;;;;;;14.55;2.50;;;;;;;12.07;100.00;101588.56;5023279;28;20044;-75
2022/07/10 00:11:47;;;;;;;13.57;2.05;;;;;;;12.03;100.00;101582.69;5025172;28;20113;-74
2022/07/10 00:14:13;;;;;;;7.00;1.97;;;;;;;12.07;100.00;101593.09;5025228;28;20496;-74
2022/07/10 00:16:38;;;;;;;8.93;1.87;;;;;;;12.07;100.00;101595.75;5024218;28;20025;-74
2022/07/10 00:19:03;;;;;;;6.63;2.03;;;;;;;11.92;100.00;101595.44;5023803;28;20285;-75
2022/07/10 00:21:29;;;;;;;7.23;1.70;;;;;;;11.97;100.00;101591.31;5023996;28;20023;-74
2022/07/10 00:23:54;;;;;;;13.63;1.80;;;;;;;11.95;100.00;101592.47;5023933;28;20025;-74
2022/07/10 00:26:19;;;;;;;8.57;1.60;;;;;;;11.95;100.00;101600.50;5024830;28;20426;-74
2022/07/10 00:28:45;;;;;;;7.33;1.67;;;;;;;12.03;100.00;101614.81;5023787;28;20530;-74
2022/07/10 00:31:10;;;;;;;9.00;1.60;;;;;;;11.91;100.00;101610.63;5024066;28;20033;-75
2022/07/10 00:33:37;;;;;;;7.97;2.23;;;;;;;11.91;100.00;101615.16;5023289;28;20033;-75
2022/07/10 00:36:02;;;;;;;;;;;;;;;11.89;100.00;101617.13;5024600;28;20033;-74
2022/07/10 00:38:28;;;;;;;;;;;;;;;11.89;100.00;101620.66;5022160;28;19913;-73
2022/07/10 00:40:53;;;;;;;8.50;1.90;;;;;;;11.79;100.00;101617.16;5021345;28;19917;-74
2022/07/10 00:43:19;;;;;;;9.00;2.00;;;;;;;11.71;100.00;101625.09;5022836;28;20782;-74
2022/07/10 00:45:44;;;;;;;10.47;1.87;;;;;;;11.69;100.00;101619.88;5005310;28;20028;-75
2022/07/10 00:48:09;;;;;;;10.83;2.33;;;;;;;11.64;100.00;101629.38;5005015;28;20041;-74
2022/07/10 00:50:35;;;;;;;12.33;1.87;;;;;;;11.61;100.00;101633.16;5023087;28;20036;-74
2022/07/10 00:53:02;;;;;;;10.53;2.00;;;;;;;11.63;100.00;101628.50;5022910;28;20033;-75
2022/07/10 00:55:28;;;;;;;13.63;3.00;;;;;;;11.57;100.00;101623.75;5024839;28;20394;-74
2022/07/10 00:57:55;;;;;;;7.22;1.77;;;;;;;11.51;100.00;101617.16;5023755;28;20091;-74
2022/07/10 01:00:21;;;;;;;15.98;2.03;;;;;;;11.61;100.00;101620.63;5006564;28;20021;-74
2022/07/10 01:02:47;;;;;;;;;;;;;;;11.70;100.00;101618.06;5025227;28;20112;-75
2022/07/10 01:05:12;;;;;;;;;;;;;;;11.69;100.00;101619.88;5019831;28;19996;-74
2022/07/10 01:07:41;;;;;;;10.18;2.47;;;;;;;11.67;100.00;101603.16;5024824;28;19913;-73
2022/07/10 01:10:06;;;;;;;9.60;3.00;;;;;;;11.78;100.00;101616.31;5013251;28;20375;-74
2022/07/10 01:12:32;;;;;;;12.35;3.20;;;;;;;11.87;100.00;101605.69;5031200;28;20083;-74
2022/07/10 01:14:58;;;;;;;12.75;2.22;;;;;;;11.84;100.00;101602.34;5023504;28;20033;-74
2022/07/10 01:17:25;;;;;;;10.07;2.10;;;;;;;11.92;100.00;101611.50;5023254;28;20592;-74
2022/07/10 01:19:50;;;;;;;11.23;2.22;;;;;;;11.94;100.00;101594.31;5008892;28;20054;-75
2022/07/10 01:22:16;;;;;;;14.63;2.67;;;;;;;12.03;100.00;101589.84;5010833;28;20072;-74
2022/07/10 01:24:41;;;;;;;11.87;2.00;;;;;;;11.97;100.00;101585.97;5010817;28;20061;-75
2022/07/10 01:27:08;;;;;;;8.25;2.20;;;;;;;12.09;100.00;101591.09;5028145;28;20399;-74
2022/07/10 01:29:34;;;;;;;16.88;2.95;;;;;;;11.97;100.00;101566.41;5027119;28;20483;-74
2022/07/10 01:32:01;;;;;;;11.40;3.05;;;;;;;12.08;100.00;101574.22;5026934;28;20037;-74
2022/07/10 01:34:26;;;;;;;;;;;;;;;12.11;100.00;101571.22;5027617;28;20018;-74
2022/07/10 01:36:51;;;;;;;;;;;;;;;12.12;100.00;101567.53;5028706;28;19917;-74
2022/07/10 01:39:17;;;;;;;9.90;2.13;;;;;;;12.06;100.00;101554.78;5026973;28;19920;-74
2022/07/10 01:41:42;;;;;;;7.37;2.17;;;;;;;11.99;100.00;101537.66;5026703;28;20041;-74
2022/07/10 01:44:08;;;;;;;16.10;2.57;;;;;;;11.97;100.00;101535.13;5010293;28;20275;-74
2022/07/10 01:46:33;;;;;;;16.75;2.60;;;;;;;11.96;100.00;101529.91;5026320;28;20094;-74
2022/07/10 01:48:58;;;;;;;12.13;2.00;;;;;;;11.97;100.00;101518.22;5026953;28;20029;-74
2022/07/10 01:51:24;;;;;;;11.77;3.10;;;;;;;11.99;100.00;101508.22;5026545;28;20025;-74
2022/07/10 01:53:49;;;;;;;11.30;3.07;;;;;;;11.94;100.00;101507.81;5028075;28;20286;-74
2022/07/10 01:56:15;;;;;;;13.03;3.50;;;;;;;11.94;100.00;101510.47;5027524;28;20048;-74
2022/07/10 01:58:41;;;;;;;12.27;2.42;;;;;;;11.96;100.00;101516.53;5026653;28;20036;-75
2022/07/10 02:01:08;;;;;;;14.70;3.13;;;;;;;12.00;100.00;101508.03;5027117;28;20424;-74
2022/07/10 02:06:18;;;;;;;15.00;2.67;;;;;;;12.06;100.00;101498.56;5027511;28;20411;-74
2022/07/10 02:08:44;;;;;;;11.35;2.78;;;;;;;11.99;100.00;101482.28;5026573;28;20030;-74
2022/07/10 02:11:10;;;;;;;15.53;2.60;;;;;;;11.99;100.00;101492.16;5027050;28;20052;-74
2022/07/10 02:13:35;;;;;;;13.38;2.15;;;;;;;12.06;100.00;101498.56;5027776;28;20095;-74
2022/07/10 02:16:00;;;;;;;15.03;3.07;;;;;;;12.04;100.00;101495.19;5026143;28;20038;-75
2022/07/10 02:18:26;;;;;;;16.90;2.67;;;;;;;12.00;100.00;101499.19;5026163;28;20036;-75
2022/07/10 02:20:52;;;;;;;17.57;3.77;;;;;;;12.03;100.00;101501.53;5026083;28;20029;-75
2022/07/10 02:23:18;;;;;;;18.45;2.90;;;;;;;12.07;100.00;101504.75;5009624;28;20117;-74
2022/07/10 02:25:44;;;;;;;16.23;3.35;;;;;;;12.07;100.00;101502.09;5009381;28;20100;-75
2022/07/10 02:28:09;;;;;;;13.77;3.42;;;;;;;12.00;100.00;101493.81;5026061;28;20078;-73
2022/07/10 02:30:35;;;;;;;15.82;3.42;;;;;;;12.04;100.00;101492.53;5025074;28;20651;-75
2022/07/10 02:33:00;;;;;;;27.40;6.82;;;;;;;12.03;100.00;101493.50;5026065;28;20025;-75
2022/07/10 02:35:26;;;;;;;20.67;3.43;;;;;;;12.06;100.00;101501.25;5025650;28;20044;-75
2022/07/10 02:37:51;;;;;;;13.67;3.20;;;;;;;12.09;100.00;101490.22;5027283;28;20025;-75
2022/07/10 02:40:17;;;;;;;14.13;2.77;;;;;;;12.08;100.00;101487.69;5026310;28;20099;-74
2022/07/10 02:42:42;;;;;;;17.93;2.63;;;;;;;12.01;100.00;101472.28;5027078;28;20036;-73
2022/07/10 02:45:08;;;;;;;19.43;3.57;;;;;;;12.00;100.00;101469.75;5025662;28;20083;-74
2022/07/10 02:47:33;;;;;;;18.38;3.20;;;;;;;12.02;100.00;101470.44;5025630;28;20471;-74
2022/07/10 02:49:59;;;;;;;13.93;3.80;;;;;;;12.00;100.00;101473.25;5025418;28;20032;-74
2022/07/10 02:52:24;;;;;;;15.53;3.77;;;;;;;11.93;100.00;101485.56;5025608;28;20057;-74
2022/07/10 02:54:50;;;;;;;18.77;3.33;;;;;;;11.98;100.00;101509.19;5025585;28;20098;-74
2022/07/10 02:57:16;;;;;;;15.52;3.17;;;;;;;11.95;100.00;101515.69;5025571;28;20442;-76
2022/07/10 02:59:41;;;;;;;17.67;3.08;;;;;;;12.02;100.00;101526.63;5024968;28;20148;-75
2022/07/10 03:02:07;;;;;;;23.40;3.87;;;;;;;12.05;100.00;101523.63;5008872;28;20025;-74
2022/07/10 03:04:33;;;;;;;13.85;2.85;;;;;;;12.07;100.00;101518.16;5009150;28;20295;-75
2022/07/10 03:06:58;;;;;;;20.20;5.20;;;;;;;12.07;100.00;101521.66;5025632;28;20032;-74
2022/07/10 03:09:25;;;;;;;19.73;3.47;;;;;;;12.08;100.00;101526.03;5025444;28;20041;-74
2022/07/10 03:11:51;;;;;;;22.13;4.90;;;;;;;12.06;100.00;101503.06;5026760;28;20033;-74
2022/07/10 03:14:17;;;;;;;12.13;2.65;;;;;;;12.08;100.00;101483.22;5025188;28;20128;-74
2022/07/10 03:16:42;;;;;;;16.80;4.05;;;;;;;12.13;100.00;101482.75;5025203;28;20096;-75
2022/07/10 03:19:08;;;;;;;12.93;2.53;;;;;;;12.11;100.00;101466.81;5026131;28;20033;-75
2022/07/10 03:21:33;;;;;;;18.33;2.73;;;;;;;12.12;100.00;101475.69;5024773;28;20018;-74
2022/07/10 03:23:58;;;;;;;12.03;3.33;;;;;;;12.11;100.00;101450.75;5026425;28;20129;-74
2022/07/10 03:26:24;;;;;;;16.70;2.67;;;;;;;12.03;100.00;101442.66;5026169;28;20417;-74
2022/07/10 03:28:49;;;;;;;12.77;2.40;;;;;;;12.07;100.00;101464.63;5026127;28;20037;-74
2022/07/10 03:31:14;;;;;;;16.10;2.87;;;;;;;12.05;100.00;101462.09;5024714;28;20436;-74
2022/07/10 03:33:40;;;;;;;15.67;5.30;;;;;;;12.08;100.00;101434.16;5026254;28;20491;-74
2022/07/10 03:36:06;;;;;;;16.97;2.47;;;;;;;12.15;100.00;101422.69;5024673;28;20025;-75
2022/07/10 03:38:31;;;;;;;16.02;3.10;;;;;;;12.18;100.00;101427.72;5008179;28;20087;-74
2022/07/10 03:40:57;;;;;;;25.52;4.47;;;;;;;12.13;100.00;101438.06;5025692;28;20029;-75
2022/07/10 03:43:22;;;;;;;15.40;2.75;;;;;;;12.10;100.00;101438.34;5023771;28;20033;-74
2022/07/10 03:45:48;;;;;;;18.67;3.40;;;;;;;12.08;100.00;101435.03;5024764;28;20382;-74
2022/07/10 03:48:13;;;;;;;15.57;3.53;;;;;;;12.18;100.00;101441.13;5024512;28;20056;-74
2022/07/10 03:50:39;;;;;;;17.50;2.77;;;;;;;12.17;100.00;101455.47;5024211;28;20033;-74
2022/07/10 03:53:04;;;;;;;19.87;2.93;;;;;;;12.27;100.00;101459.91;5024618;28;20034;-74
2022/07/10 03:55:30;;;;;;;15.93;3.23;;;;;;;12.32;100.00;101462.97;5024541;28;20788;-74
2022/07/10 03:57:56;;;;;;;8.82;2.97;;;;;;;12.34;100.00;101455.59;5025718;28;20033;-75
2022/07/10 04:00:23;;;;;;;19.27;2.80;;;;;;;12.40;100.00;101445.09;5025354;28;20240;-74
2022/07/10 04:02:55;;;;;;;9.10;2.50;;;;;;;12.48;100.00;101441.66;5025722;28;20040;-74
2022/07/10 04:05:20;;;;;;;12.65;3.83;;;;;;;12.50;100.00;101438.81;5024430;28;20544;-74
2022/07/10 04:07:46;;;;;;;18.90;3.80;;;;;;;12.55;100.00;101429.31;5024554;28;20029;-74
2022/07/10 04:10:11;;;;;;;21.60;3.70;;;;;;;12.63;100.00;101407.91;5007613;28;20044;-75
2022/07/10 04:12:36;;;;;;;14.33;2.97;;;;;;;12.77;100.00;101402.97;5025489;28;20031;-74
2022/07/10 04:15:02;;;;;;;25.53;4.60;;;;;;;12.67;100.00;101366.41;5023305;28;20040;-74
2022/07/10 04:17:29;;;;;;;32.60;3.90;;;;;;;12.70;100.00;101343.00;5023992;28;20429;-74
2022/07/10 04:19:54;;;;;;;13.50;3.17;;;;;;;12.52;100.00;101311.75;5025012;28;20295;-74
2022/07/10 04:22:19;;;;;;;12.37;2.83;;;;;;;12.39;100.00;101314.91;5024947;28;20056;-75
2022/07/10 04:24:45;;;;;;;19.13;2.87;;;;;;;12.40;100.00;101342.50;5007092;28;20065;-74
2022/07/10 04:27:10;;;;;;;16.40;3.40;;;;;;;12.43;100.00;101358.25;5025038;28;20033;-76
2022/07/10 04:29:36;;;;;;;10.47;3.53;;;;;;;12.21;100.00;101343.59;5025665;28;20491;-76
2022/07/10 04:32:02;;;;;;;15.27;4.43;;;;;;;12.21;100.00;101352.44;5023749;28;20034;-74
2022/07/10 04:34:27;;;;;;;16.63;2.90;;;;;;;12.15;100.00;101323.66;5025075;28;20029;-75
2022/07/10 04:36:52;;;;;;;14.70;2.70;;;;;;;12.09;100.00;101324.28;5023769;28;20025;-75
2022/07/10 04:39:18;;;;;;;11.60;2.43;;;;;;;12.11;100.00;101341.03;5023589;28;20077;-75
2022/07/10 04:41:43;;;;;;;16.87;3.07;;;;;;;12.22;100.00;101338.09;5023819;28;20025;-74
2022/07/10 04:44:08;;;;;;;21.37;3.33;;;;;;;12.33;100.00;101325.41;5024598;28;20068;-76
2022/07/10 04:46:34;;;;;;;14.30;2.40;;;;;;;12.51;100.00;101328.00;5023145;28;20049;-73
2022/07/10 04:48:59;;;;;;;11.67;2.60;;;;;;;12.60;100.00;101321.69;5023728;28;20088;-74
2022/07/10 04:51:25;;;;;;;10.40;2.60;;;;;;;12.75;100.00;101297.78;5024744;28;20905;-74
2022/07/10 04:53:50;;;;;;;17.07;6.00;;;;;;;12.77;100.00;101279.72;5025630;28;20092;-74
2022/07/10 04:56:16;;;;;;;16.47;3.10;;;;;;;12.63;100.00;101247.19;5011254;28;20033;-75
2022/07/10 04:58:41;;;;;;;11.43;2.43;;;;;;;12.65;100.00;101239.81;5028798;28;20037;-74
2022/07/10 05:01:06;;;;;;;13.27;2.20;;;;;;;12.81;100.00;101247.06;5028197;28;20031;-75
2022/07/10 05:03:32;;;;;;;16.15;2.88;;;;;;;12.66;100.00;101190.59;5011252;28;20045;-74
2022/07/10 05:05:57;;;;;;;18.10;3.73;;;;;;;12.72;100.00;101228.47;5029161;28;20026;-75
2022/07/10 05:08:24;;;;;;;12.37;2.50;;;;;;;12.80;100.00;101239.19;5029437;28;21320;-74
2022/07/10 05:10:50;;;;;;;14.73;2.80;;;;;;;12.84;100.00;101227.13;5011721;28;20029;-75
2022/07/10 05:13:15;;;;;;;18.87;2.63;;;;;;;13.06;100.00;101264.03;5011675;28;20077;-74
2022/07/10 05:15:41;;;;;;;19.50;2.87;;;;;;;12.75;100.00;101212.06;5010643;28;20036;-74
2022/07/10 05:18:06;;;;;;;8.23;1.70;;;;;;;12.70;100.00;101249.22;5028458;28;20483;-75
2022/07/10 05:20:33;;;;;;;14.63;2.47;;;;;;;12.67;100.00;101253.91;5026806;28;20029;-75
2022/07/10 05:22:58;;;;;;;14.20;2.40;;;;;;;12.82;100.00;101285.41;5028612;28;20061;-75
2022/07/10 05:25:26;;;;;;;15.37;3.30;;;;;;;13.05;100.00;101275.75;5027452;28;20048;-75
2022/07/10 05:27:52;;;;;;;19.40;3.38;;;;;;;13.34;100.00;101247.63;5026833;28;20091;-75
2022/07/10 05:30:17;;;;;;;9.70;2.08;;;;;;;13.82;100.00;101216.38;5024803;28;20049;-75
2022/07/10 05:32:44;;;;;;;11.10;2.27;;;;;;;14.13;100.00;101186.03;5008530;28;20083;-75
2022/07/10 05:35:10;;;;;;;14.38;2.20;;;;;;;13.92;100.00;101090.84;5025177;28;20075;-74
2022/07/10 05:37:35;;;;;;;12.43;2.67;;;;;;;14.45;100.00;101158.19;5026881;28;20037;-74
2022/07/10 05:40:01;;;;;;;14.93;3.63;;;;;;;15.39;100.00;101164.13;5008523;28;20025;-75
2022/07/10 05:42:26;;;;;;;18.03;2.50;;;;;;;15.72;100.00;101033.78;5024789;28;20555;-74
2022/07/10 05:44:51;;;;;;;13.93;2.73;;;;;;;15.51;100.00;100856.94;5025820;28;20026;-74
2022/07/10 05:47:17;;;;;;;10.80;2.63;;;;;;;15.85;100.00;100888.56;5026959;28;20135;-75
2022/07/10 05:49:42;;;;;;;12.77;2.27;;;;;;;15.40;100.00;100871.72;5026398;28;20025;-75
2022/07/10 05:52:07;;;;;;;21.63;3.20;;;;;;;15.76;100.00;100989.31;5026740;28;20037;-74
2022/07/10 05:54:33;;;;;;;18.90;4.50;;;;;;;15.22;100.00;100935.84;5026843;28;20053;-74
2022/07/10 05:56:58;;;;;;;14.03;4.67;;;;;;;15.02;100.00;101018.97;5010361;28;20407;-75
2022/07/10 05:59:23;;;;;;;11.13;2.20;;;;;;;14.86;100.00;101087.16;5026202;28;20394;-74
2022/07/10 06:01:49;;;;;;;13.53;3.53;;;;;;;14.50;100.00;101068.97;5026509;28;20033;-74
2022/07/10 06:04:14;;;;;;;13.93;2.40;;;;;;;14.30;100.00;101112.41;5026422;28;20152;-74
2022/07/10 06:06:40;;;;;;;9.17;2.03;;;;;;;14.10;100.00;101170.28;5008852;28;20680;-75
2022/07/10 06:09:05;;;;;;;12.77;2.10;;;;;;;13.97;100.00;101203.06;5025868;28;20060;-75
2022/07/10 06:11:30;;;;;;;9.37;2.07;;;;;;;13.71;100.00;101157.69;5027061;28;20446;-73
2022/07/10 06:13:56;;;;;;;12.40;2.30;;;;;;;13.49;100.00;101168.16;5028464;28;20035;-74
2022/07/10 06:16:22;;;;;;;13.18;2.08;;;;;;;13.56;100.00;101250.63;5026998;28;20132;-74
2022/07/10 06:18:48;;;;;;;9.95;2.03;;;;;;;13.72;100.00;101352.59;5010723;28;20127;-74
2022/07/10 06:21:13;;;;;;;12.03;2.50;;;;;;;13.60;100.00;101302.94;5026780;28;20060;-74
2022/07/10 06:23:38;;;;;;;13.97;2.60;;;;;;;13.56;100.00;101266.75;5027807;28;20083;-74
2022/07/10 06:26:04;;;;;;;10.50;2.70;;;;;;;13.36;100.00;101240.25;5026907;28;20415;-74
2022/07/10 06:28:29;;;;;;;10.63;1.77;;;;;;;13.29;100.00;101252.66;5027345;28;20910;-74
2022/07/10 06:30:55;;;;;;;13.77;2.70;;;;;;;13.46;100.00;101286.53;5026579;28;20132;-73
2022/07/10 06:33:21;;;;;;;9.35;2.55;;;;;;;13.58;100.00;101283.47;5027092;28;20029;-75
2022/07/10 06:35:46;;;;;;;14.00;2.67;;;;;;;13.52;100.00;101318.03;5010142;28;20041;-75
2022/07/10 06:38:11;;;;;;;11.13;1.83;;;;;;;13.62;100.00;101330.44;5026828;28;20033;-74
2022/07/10 06:40:38;;;;;;;9.87;1.70;;;;;;;13.71;100.00;101322.19;5009569;28;20509;-73
2022/07/10 06:43:03;;;;;;;13.23;2.28;;;;;;;13.68;100.00;101281.47;5010198;28;20030;-73
2022/07/10 06:45:30;;;;;;;7.82;3.10;;;;;;;13.86;100.00;101262.47;5018581;28;20068;-74
2022/07/10 06:47:55;;;;;;;16.05;2.30;;;;;;;14.26;100.00;101256.16;5010086;28;20053;-73
2022/07/10 06:50:22;;;;;;;11.70;2.03;;;;;;;14.63;100.00;101174.03;5026250;28;20033;-75
2022/07/10 06:52:47;;;;;;;;;;;;;;;14.74;100.00;101097.53;5028044;28;20029;-75
2022/07/10 06:55:14;;;;;;;12.68;2.17;;;;;;;14.70;100.00;101037.09;5027597;28;19939;-74
2022/07/10 06:57:39;;;;;;;13.43;2.10;;;;;;;15.14;100.00;101135.81;5026251;28;20052;-74
2022/07/10 07:00:06;;;;;;;10.13;1.92;;;;;;;15.66;100.00;101038.00;5026143;28;20904;-74
2022/07/10 07:02:32;;;;;;;14.68;2.10;;;;;;;15.38;100.00;100944.56;5023712;28;20087;-75
2022/07/10 07:04:57;;;;;;;5.20;1.70;;;;;;;15.16;100.00;100957.09;5026010;28;20033;-75
2022/07/10 07:07:22;;;;;;;7.23;1.47;;;;;;;14.58;100.00;101012.50;5027538;28;20033;-75
2022/07/10 07:09:50;;;;;;;13.30;2.07;;;;;;;14.40;100.00;101135.53;5023868;28;20030;-74
2022/07/10 07:12:17;;;;;;;8.95;1.60;;;;;;;14.60;100.00;101179.75;5007710;28;20029;-74
2022/07/10 07:14:43;;;;;;;8.63;1.77;;;;;;;14.56;100.00;101213.38;5024647;28;20124;-74
2022/07/10 07:17:13;;;;;;;11.90;3.10;;;;;;;14.53;100.00;101179.59;5024135;28;20108;-74
2022/07/10 07:25:18;;;;;;;9.40;1.70;;;;;;;14.38;100.00;101307.63;5024533;28;20037;-75
2022/07/10 07:27:43;;;;;;;9.23;1.75;;;;;;;14.25;100.00;101294.75;5025175;28;20021;-75
2022/07/10 07:30:11;;;;;;;7.53;1.60;;;;;;;14.03;100.00;101241.81;5025614;28;20465;-74
2022/07/10 07:32:37;;;;;;;13.38;1.95;;;;;;;14.12;100.00;101283.72;5026565;28;20075;-74
2022/07/10 07:35:05;;;;;;;7.30;1.85;;;;;;;14.46;100.00;101240.44;5024202;28;20037;-74
2022/07/10 07:37:48;;;;;;;11.95;1.95;;;;;;;14.51;100.00;101145.88;5016716;28;20028;-75
2022/07/10 07:40:16;;;;;;;10.35;1.63;;;;;;;14.40;100.00;101157.03;5024785;28;20033;-75
2022/07/10 07:42:42;;;;;;;13.57;1.73;;;;;;;14.43;100.00;101154.00;5007282;28;20822;-75
2022/07/10 07:45:09;;;;;;;8.05;2.00;;;;;;;14.56;100.00;101213.38;5023811;28;20068;-75
2022/07/10 07:47:53;;;;;;;11.55;1.73;;;;;;;15.85;100.00;101181.16;5024037;28;20036;-75
2022/07/10 07:50:31;;;;;;;8.00;1.65;;;;;;;15.72;100.00;101090.31;5023646;28;20449;-75
2022/07/10 07:52:56;;;;;;;5.88;1.23;;;;;;;15.81;100.00;101056.88;5025363;28;20029;-75
2022/07/10 07:55:22;;;;;;;13.13;2.17;;;;;;;15.43;100.00;100995.13;5025424;28;20033;-75
2022/07/10 07:57:53;;;;;;;8.85;2.17;;;;;;;14.92;100.00;101019.25;5024369;28;20095;-74
2022/07/10 08:00:19;;;;;;;7.68;1.88;;;;;;;15.01;100.00;101227.88;5007130;28;20038;-74
2022/07/10 08:02:45;;;;;;;7.88;1.80;;;;;;;15.30;100.00;101210.97;5024484;28;20583;-76
2022/07/10 08:05:10;;;;;;;8.03;1.90;;;;;;;15.33;100.00;101143.34;5025628;28;20037;-75
2022/07/10 08:07:40;;;;;;;10.50;2.57;;;;;;;16.82;100.00;101312.97;5007679;28;20265;-75
2022/07/10 08:10:09;;;;;;;6.43;1.30;;;;;;;16.59;100.00;100989.63;5023924;28;20033;-75
2022/07/10 08:12:35;;;;;;;6.97;1.67;;;;;;;15.73;100.00;100758.19;5023600;28;20024;-75
2022/07/10 08:15:00;;;;;;;10.00;1.57;;;;;;;15.41;100.00;100803.44;5025787;28;20033;-76
2022/07/10 08:17:26;;;;;;;8.40;2.23;;;;;;;16.64;100.00;101103.09;5007794;28;20071;-75
2022/07/10 08:19:52;;;;;;;9.13;1.50;;;;;;;17.33;96.55;100769.66;5022379;28;20033;-75
2022/07/10 08:22:18;;;;;;;6.88;1.33;;;;;;;17.82;90.84;100765.75;5024209;28;20096;-74
2022/07/10 08:24:43;;;;;;;7.72;2.30;;;;;;;18.10;86.35;100719.56;5023782;28;20052;-75
2022/07/10 08:27:09;;;;;;;6.87;1.90;;;;;;;16.92;82.11;100422.78;5025327;28;20038;-74
2022/07/10 08:29:34;;;;;;;7.37;2.03;;;;;;;16.68;96.91;100719.72;5023349;28;20033;-74
2022/07/10 08:32:00;;;;;;;8.03;2.03;;;;;;;16.66;100.00;100836.88;5023585;28;20033;-75
2022/07/10 08:34:26;;;;;;;8.63;1.67;;;;;;;16.03;100.00;100697.69;5023641;28;20082;-75
2022/07/10 08:36:51;;;;;;;7.90;1.63;;;;;;;16.60;99.04;100822.34;5023497;28;20029;-75
2022/07/10 08:39:20;;;;;;;8.93;1.27;;;;;;;17.79;84.76;100721.03;5023664;28;20044;-75
2022/07/10 08:41:48;;;;;;;9.15;1.35;;;;;;;17.41;73.68;100338.50;5007044;28;20120;-75
2022/07/10 08:44:14;;;;;;;5.35;1.10;;;;;;;18.34;77.36;100685.56;5025319;28;20459;-75
2022/07/10 08:46:40;;;;;;;8.27;1.60;;;;;;;18.99;69.66;100561.00;5023738;28;20124;-74
2022/07/10 08:49:10;;;;;;;9.57;1.33;;;;;;;18.70;68.30;100451.56;5025189;28;20068;-75
2022/07/10 08:51:40;;;;;;;5.65;0.90;;;;;;;18.91;69.62;100589.13;5023779;28;20465;-75
2022/07/10 08:54:08;;;;;;;5.88;1.60;;;;;;;18.80;67.68;100457.34;5025018;28;20588;-75
2022/07/10 08:56:34;;;;;;;9.23;1.42;;;;;;;18.44;72.01;100529.16;5007599;28;20013;-74
2022/07/10 08:59:01;;;;;;;10.48;1.70;;;;;;;18.06;72.02;100450.88;5007224;28;20025;-75
2022/07/10 09:01:27;;;;;;;10.75;1.63;;;;;;;18.37;72.94;100571.63;5023697;28;20028;-75
2022/07/10 09:03:52;;;;;;;10.07;1.70;;;;;;;18.25;71.57;100519.34;5024609;28;20025;-75
2022/07/10 09:06:18;;;;;;;6.77;1.63;;;;;;;17.66;71.20;100441.13;5023900;28;20502;-75
2022/07/10 09:09:05;;;;;;;8.23;1.50;;;;;;;18.89;67.77;100620.97;5024889;28;20030;-75
2022/07/10 09:11:32;;;;;;;9.13;1.55;;;;;;;19.74;65.62;100690.81;5023242;28;20049;-75
2022/07/10 09:14:03;;;;;;;6.95;1.48;;;;;;;20.09;61.45;100532.19;5023498;28;20108;-75
2022/07/10 09:16:30;;;;;;;8.40;1.58;;;;;;;19.64;64.53;100600.28;5006786;28;20398;-75
2022/07/10 09:18:56;;;;;;;6.57;1.88;;;;;;;20.28;58.58;100447.06;5024962;28;20553;-74
2022/07/10 09:21:22;;;;;;;10.88;2.45;;;;;;;19.28;58.96;100239.25;5023018;28;20041;-75
2022/07/10 09:23:48;;;;;;;;;;;;;;;19.65;64.82;100654.22;5023466;28;20013;-74
2022/07/10 09:26:14;;;;;;;9.88;2.70;;;;;;;20.18;60.62;100569.63;5021574;28;19920;-74
2022/07/10 09:28:39;;;;;;;6.28;1.30;;;;;;;20.90;57.63;100571.44;5022690;28;20479;-74
2022/07/10 09:31:05;;;;;;;12.25;1.55;;;;;;;21.35;55.00;100467.63;5022365;28;20410;-75
2022/07/10 09:33:31;;;;;;;10.63;1.83;;;;;;;20.07;53.82;100098.09;5021875;28;20104;-75
2022/07/10 09:36:10;;;;;;;;;;;;;;;19.29;59.94;100330.19;5005133;28;20064;-75
2022/07/10 09:38:39;;;;;;;8.10;1.50;;;;;;;18.60;62.67;100362.88;5022034;28;19924;-75
2022/07/10 09:41:30;;;;;;;11.63;1.90;;;;;;;18.05;62.54;100243.94;5026859;28;20025;-76
2022/07/10 09:43:58;;;;;;;11.10;3.40;;;;;;;18.20;64.66;100402.97;5029110;28;20904;-73
2022/07/10 09:46:35;;;;;;;5.00;1.30;;;;;;;17.78;64.29;100297.34;5010151;28;20113;-74
2022/07/10 09:49:01;;;;;;;8.45;1.90;;;;;;;17.63;66.33;100354.34;5026964;28;20033;-74
2022/07/10 09:51:30;;;;;;;6.43;1.90;;;;;;;19.24;62.28;100579.06;5026192;28;20014;-74
2022/07/10 09:53:57;;;;;;;6.47;1.75;;;;;;;19.48;57.12;100341.78;5010232;28;20044;-74
2022/07/10 09:56:24;;;;;;;6.97;1.42;;;;;;;20.31;56.66;100529.81;5026464;28;20036;-74
2022/07/10 09:58:52;;;;;;;5.15;2.45;;;;;;;21.06;53.78;100429.59;5027046;28;20033;-74
2022/07/10 10:01:19;;;;;;;5.78;1.52;;;;;;;20.53;53.74;100292.25;5025280;28;20033;-75
2022/07/10 10:03:47;;;;;;;5.78;1.58;;;;;;;19.75;59.07;100469.56;5026971;28;20554;-75
2022/07/10 10:06:16;;;;;;;7.10;1.52;;;;;;;18.85;58.67;100240.31;5009882;28;20032;-74
2022/07/10 10:08:56;;;;;;;9.20;2.28;;;;;;;18.32;63.08;100395.81;5026827;28;20033;-74
2022/07/10 10:11:25;;;;;;;8.95;1.90;;;;;;;17.84;67.84;100472.84;5027259;28;20541;-75
2022/07/10 10:13:52;;;;;;;5.15;1.35;;;;;;;18.48;72.99;100784.47;5026010;28;20148;-75
2022/07/10 10:16:20;;;;;;;6.75;1.48;;;;;;;18.31;64.34;100421.19;5009044;28;20132;-74
2022/07/10 10:21:32;;;;;;;6.18;1.45;;;;;;;18.29;60.86;100320.59;5020094;28;20140;-76
2022/07/10 10:23:59;;;;;;;9.52;2.03;;;;;;;18.41;60.79;100343.13;5027477;28;20100;-75
2022/07/10 10:26:24;;;;;;;;;;;;;;;19.09;57.12;100319.66;5028654;28;20037;-74
2022/07/10 10:28:54;;;;;;;;;;;;;;;20.31;57.79;100641.78;5028743;28;20404;-74
2022/07/10 10:31:24;;;;;;;10.43;1.63;;;;;;;19.52;56.49;100324.03;5025861;28;20286;-74
2022/07/10 10:33:55;;;;;;;6.45;1.77;;;;;;;19.09;56.98;100269.09;5027289;28;20483;-74
2022/07/10 10:36:44;;;;;;;10.70;1.60;;;;;;;19.02;56.83;100249.41;5027682;28;20072;-76
2022/07/10 10:39:10;;;;;;;5.80;1.35;;;;;;;19.53;55.11;100337.34;5025712;28;20029;-75
2022/07/10 10:41:38;;;;;;;7.50;1.40;;;;;;;18.65;56.56;100181.06;5026980;28;20111;-74
2022/07/10 10:44:07;;;;;;;9.82;2.08;;;;;;;18.38;59.32;100313.84;5027274;28;20091;-74
2022/07/10 10:46:33;;;;;;;7.70;1.23;;;;;;;18.48;60.49;100416.03;5026374;28;20025;-74
2022/07/10 10:49:06;;;;;;;6.18;2.20;;;;;;;18.95;59.09;100446.97;5009447;28;20363;-74
2022/07/10 10:51:58;;;;;;;7.35;1.50;;;;;;;18.54;61.50;100450.25;5009285;28;20033;-75
2022/07/10 10:54:24;;;;;;;8.15;1.83;;;;;;;18.80;65.63;100681.81;5025307;28;20071;-74
2022/07/10 10:57:12;;;;;;;7.13;1.48;;;;;;;18.32;66.10;100552.53;5027516;28;20561;-79
2022/07/10 10:59:48;;;;;;;7.10;2.33;;;;;;;18.12;60.04;100260.88;5025491;28;20068;-74
2022/07/10 11:02:28;;;;;;;6.60;1.90;;;;;;;19.21;60.92;100604.69;5009835;28;20037;-75
2022/07/10 11:05:17;;;;;;;8.73;1.67;;;;;;;18.79;59.24;100385.38;5026000;28;20422;-74
2022/07/10 11:07:56;;;;;;;7.03;1.50;;;;;;;18.50;59.90;100341.78;5027418;28;20029;-74
2022/07/10 11:10:35;;;;;;;6.05;1.30;;;;;;;18.46;59.91;100337.84;5008650;28;20483;-78
2022/07/10 11:13:03;;;;;;;8.23;1.27;;;;;;;18.50;59.88;100368.00;5008818;28;20033;-75
2022/07/10 11:15:30;;;;;;;8.50;1.45;;;;;;;18.96;60.78;100516.28;5021759;28;20021;-75
2022/07/10 11:18:25;;;;;;;5.47;1.52;;;;;;;20.68;61.85;101026.91;5022246;28;20034;-75
2022/07/10 11:20:53;;;;;;;;;;;;;;;21.73;55.11;100840.34;5017922;28;20045;-76
2022/07/10 11:23:51;;;;;;;6.55;1.27;;;;;;;21.83;49.63;100397.69;5022163;28;19910;-76
2022/07/10 11:26:24;;;;;;;5.18;1.10;;;;;;;21.42;51.08;100452.09;5024757;28;20033;-74
2022/07/10 11:28:54;;;;;;;5.15;1.60;;;;;;;19.85;51.06;100012.03;5025185;28;20037;-75